sensor_id;sensor_type;location;lat;lon;timestamp;P1;durP1;ratioP1;P2;durP2;ratioP2
19343;SDS011;9808;52.402;16.678;2023-08-08T00:00:47;7.85;;;1.50;;
19343;SDS011;9808;52.402;16.678;2023-08-08T00:03:14;4.88;;;1.77;;
19343;SDS011;9808;52.402;16.678;2023-08-08T00:05:41;6.22;;;1.70;;
19343;SDS011;9808;52.402;16.678;2023-08-08T00:08:09;8.00;;;2.10;;
19343;SDS011;9808;52.402;16.678;2023-08-08T00:10:36;10.45;;;1.70;;
19343;SDS011;9808;52.402;16.678;2023-08-08T00:13:03;9.23;;;2.20;;
19343;SDS011;9808;52.402;16.678;2023-08-08T00:15:30;5.20;;;1.40;;
19343;SDS011;9808;52.402;16.678;2023-08-08T00:17:59;11.93;;;2.35;;
19343;SDS011;9808;52.402;16.678;2023-08-08T00:20:26;6.95;;;2.08;;
19343;SDS011;9808;52.402;16.678;2023-08-08T00:22:53;6.07;;;1.95;;
19343;SDS011;9808;52.402;16.678;2023-08-08T00:25:20;5.20;;;1.70;;
19343;SDS011;9808;52.402;16.678;2023-08-08T00:27:48;7.20;;;1.75;;
19343;SDS011;9808;52.402;16.678;2023-08-08T00:30:16;7.78;;;2.00;;
19343;SDS011;9808;52.402;16.678;2023-08-08T00:32:43;7.65;;;2.00;;
19343;SDS011;9808;52.402;16.678;2023-08-08T00:35:11;6.57;;;1.90;;
19343;SDS011;9808;52.402;16.678;2023-08-08T00:37:38;7.03;;;1.80;;
19343;SDS011;9808;52.402;16.678;2023-08-08T00:40:05;9.60;;;1.85;;
19343;SDS011;9808;52.402;16.678;2023-08-08T00:42:33;5.15;;;1.67;;
19343;SDS011;9808;52.402;16.678;2023-08-08T00:45:00;5.95;;;1.83;;
19343;SDS011;9808;52.402;16.678;2023-08-08T00:47:31;7.95;;;2.10;;
19343;SDS011;9808;52.402;16.678;2023-08-08T00:50:00;5.57;;;1.77;;
19343;SDS011;9808;52.402;16.678;2023-08-08T00:52:28;5.57;;;1.65;;
19343;SDS011;9808;52.402;16.678;2023-08-08T00:54:55;7.15;;;2.15;;
19343;SDS011;9808;52.402;16.678;2023-08-08T00:57:22;5.88;;;1.70;;
19343;SDS011;9808;52.402;16.678;2023-08-08T00:59:50;12.10;;;2.30;;
19343;SDS011;9808;52.402;16.678;2023-08-08T01:02:18;8.25;;;2.00;;
19343;SDS011;9808;52.402;16.678;2023-08-08T01:04:45;3.97;;;1.88;;
19343;SDS011;9808;52.402;16.678;2023-08-08T01:10:19;7.93;;;1.63;;
19343;SDS011;9808;52.402;16.678;2023-08-08T01:12:48;11.43;;;1.85;;
19343;SDS011;9808;52.402;16.678;2023-08-08T01:15:17;7.20;;;1.70;;
19343;SDS011;9808;52.402;16.678;2023-08-08T01:17:46;4.68;;;1.50;;
19343;SDS011;9808;52.402;16.678;2023-08-08T01:20:14;9.80;;;1.95;;
19343;SDS011;9808;52.402;16.678;2023-08-08T01:22:50;8.32;;;1.90;;
19343;SDS011;9808;52.402;16.678;2023-08-08T01:25:23;9.75;;;1.67;;
19343;SDS011;9808;52.402;16.678;2023-08-08T01:27:50;9.50;;;1.73;;
19343;SDS011;9808;52.402;16.678;2023-08-08T01:30:17;7.38;;;2.10;;
19343;SDS011;9808;52.402;16.678;2023-08-08T01:32:45;8.82;;;2.38;;
19343;SDS011;9808;52.402;16.678;2023-08-08T01:35:12;8.77;;;1.80;;
19343;SDS011;9808;52.402;16.678;2023-08-08T01:37:44;4.28;;;1.75;;
19343;SDS011;9808;52.402;16.678;2023-08-08T01:40:12;5.15;;;1.77;;
19343;SDS011;9808;52.402;16.678;2023-08-08T01:42:40;6.05;;;2.20;;
19343;SDS011;9808;52.402;16.678;2023-08-08T01:45:08;8.38;;;2.10;;
19343;SDS011;9808;52.402;16.678;2023-08-08T01:47:37;5.50;;;1.50;;
19343;SDS011;9808;52.402;16.678;2023-08-08T01:50:05;5.25;;;1.73;;
19343;SDS011;9808;52.402;16.678;2023-08-08T01:52:32;7.25;;;1.60;;
19343;SDS011;9808;52.402;16.678;2023-08-08T01:54:59;5.82;;;2.10;;
19343;SDS011;9808;52.402;16.678;2023-08-08T01:57:26;4.95;;;1.70;;
19343;SDS011;9808;52.402;16.678;2023-08-08T01:59:54;4.50;;;1.60;;
19343;SDS011;9808;52.402;16.678;2023-08-08T02:02:21;4.13;;;1.83;;
19343;SDS011;9808;52.402;16.678;2023-08-08T02:04:48;9.27;;;1.75;;
19343;SDS011;9808;52.402;16.678;2023-08-08T02:07:16;4.40;;;1.65;;
19343;SDS011;9808;52.402;16.678;2023-08-08T02:09:43;5.28;;;1.77;;
19343;SDS011;9808;52.402;16.678;2023-08-08T02:12:12;7.60;;;2.03;;
19343;SDS011;9808;52.402;16.678;2023-08-08T02:14:39;9.13;;;1.80;;
19343;SDS011;9808;52.402;16.678;2023-08-08T02:17:06;4.72;;;1.75;;
19343;SDS011;9808;52.402;16.678;2023-08-08T02:19:33;5.13;;;2.10;;
19343;SDS011;9808;52.402;16.678;2023-08-08T02:22:01;5.88;;;1.90;;
19343;SDS011;9808;52.402;16.678;2023-08-08T02:24:28;7.63;;;2.13;;
19343;SDS011;9808;52.402;16.678;2023-08-08T02:26:55;8.65;;;2.03;;
19343;SDS011;9808;52.402;16.678;2023-08-08T02:29:22;6.70;;;2.00;;
19343;SDS011;9808;52.402;16.678;2023-08-08T02:31:50;4.60;;;1.58;;
19343;SDS011;9808;52.402;16.678;2023-08-08T02:34:17;4.90;;;1.67;;
19343;SDS011;9808;52.402;16.678;2023-08-08T02:36:44;5.72;;;1.65;;
19343;SDS011;9808;52.402;16.678;2023-08-08T02:39:11;10.05;;;1.95;;
19343;SDS011;9808;52.402;16.678;2023-08-08T02:41:39;5.55;;;1.58;;
19343;SDS011;9808;52.402;16.678;2023-08-08T02:44:06;9.02;;;1.92;;
19343;SDS011;9808;52.402;16.678;2023-08-08T02:46:34;5.10;;;1.88;;
19343;SDS011;9808;52.402;16.678;2023-08-08T02:49:04;7.55;;;1.83;;
19343;SDS011;9808;52.402;16.678;2023-08-08T02:51:31;6.03;;;2.10;;
19343;SDS011;9808;52.402;16.678;2023-08-08T02:53:58;6.85;;;1.65;;
19343;SDS011;9808;52.402;16.678;2023-08-08T02:56:25;8.98;;;1.80;;
19343;SDS011;9808;52.402;16.678;2023-08-08T02:58:53;4.30;;;1.65;;
19343;SDS011;9808;52.402;16.678;2023-08-08T03:01:20;13.20;;;2.33;;
19343;SDS011;9808;52.402;16.678;2023-08-08T03:03:48;6.50;;;2.05;;
19343;SDS011;9808;52.402;16.678;2023-08-08T03:06:15;6.63;;;1.98;;
19343;SDS011;9808;52.402;16.678;2023-08-08T03:08:42;10.67;;;2.23;;
19343;SDS011;9808;52.402;16.678;2023-08-08T03:11:10;7.32;;;2.08;;
19343;SDS011;9808;52.402;16.678;2023-08-08T03:13:37;9.45;;;2.03;;
19343;SDS011;9808;52.402;16.678;2023-08-08T03:16:04;5.88;;;1.80;;
19343;SDS011;9808;52.402;16.678;2023-08-08T03:18:31;4.72;;;1.80;;
19343;SDS011;9808;52.402;16.678;2023-08-08T03:20:59;5.10;;;1.70;;
19343;SDS011;9808;52.402;16.678;2023-08-08T03:23:26;6.35;;;2.08;;
19343;SDS011;9808;52.402;16.678;2023-08-08T03:25:53;8.07;;;2.28;;
19343;SDS011;9808;52.402;16.678;2023-08-08T03:28:20;5.15;;;1.73;;
19343;SDS011;9808;52.402;16.678;2023-08-08T03:30:48;8.35;;;2.28;;
19343;SDS011;9808;52.402;16.678;2023-08-08T03:33:15;5.38;;;1.95;;
19343;SDS011;9808;52.402;16.678;2023-08-08T03:35:42;6.78;;;2.38;;
19343;SDS011;9808;52.402;16.678;2023-08-08T03:38:09;6.20;;;2.42;;
19343;SDS011;9808;52.402;16.678;2023-08-08T03:40:37;7.85;;;2.90;;
19343;SDS011;9808;52.402;16.678;2023-08-08T03:43:04;11.77;;;3.17;;
19343;SDS011;9808;52.402;16.678;2023-08-08T03:45:32;8.88;;;2.83;;
19343;SDS011;9808;52.402;16.678;2023-08-08T03:47:59;8.70;;;2.90;;
19343;SDS011;9808;52.402;16.678;2023-08-08T03:50:26;6.80;;;2.30;;
19343;SDS011;9808;52.402;16.678;2023-08-08T03:52:53;7.57;;;2.22;;
19343;SDS011;9808;52.402;16.678;2023-08-08T03:55:21;5.93;;;2.20;;
19343;SDS011;9808;52.402;16.678;2023-08-08T03:57:48;3.90;;;1.90;;
19343;SDS011;9808;52.402;16.678;2023-08-08T04:00:15;5.97;;;1.67;;
19343;SDS011;9808;52.402;16.678;2023-08-08T04:02:43;9.07;;;2.10;;
19343;SDS011;9808;52.402;16.678;2023-08-08T04:05:10;6.20;;;2.03;;
19343;SDS011;9808;52.402;16.678;2023-08-08T04:07:38;6.10;;;1.90;;
19343;SDS011;9808;52.402;16.678;2023-08-08T04:10:05;6.38;;;2.45;;
19343;SDS011;9808;52.402;16.678;2023-08-08T04:12:33;9.48;;;2.47;;
19343;SDS011;9808;52.402;16.678;2023-08-08T04:15:00;7.88;;;2.63;;
19343;SDS011;9808;52.402;16.678;2023-08-08T04:17:27;6.85;;;2.47;;
19343;SDS011;9808;52.402;16.678;2023-08-08T04:19:55;6.78;;;2.30;;
19343;SDS011;9808;52.402;16.678;2023-08-08T04:22:22;5.57;;;1.92;;
19343;SDS011;9808;52.402;16.678;2023-08-08T04:24:49;7.80;;;2.00;;
19343;SDS011;9808;52.402;16.678;2023-08-08T04:27:16;6.60;;;1.73;;
19343;SDS011;9808;52.402;16.678;2023-08-08T04:29:44;5.88;;;2.00;;
19343;SDS011;9808;52.402;16.678;2023-08-08T04:32:11;5.70;;;1.83;;
19343;SDS011;9808;52.402;16.678;2023-08-08T04:34:38;3.72;;;1.50;;
19343;SDS011;9808;52.402;16.678;2023-08-08T04:37:06;5.18;;;1.42;;
19343;SDS011;9808;52.402;16.678;2023-08-08T04:39:33;4.35;;;1.50;;
19343;SDS011;9808;52.402;16.678;2023-08-08T04:42:00;6.13;;;1.65;;
19343;SDS011;9808;52.402;16.678;2023-08-08T04:44:28;5.30;;;1.60;;
19343;SDS011;9808;52.402;16.678;2023-08-08T04:46:55;7.53;;;2.13;;
19343;SDS011;9808;52.402;16.678;2023-08-08T04:49:23;6.65;;;1.95;;
19343;SDS011;9808;52.402;16.678;2023-08-08T04:51:50;6.63;;;1.80;;
19343;SDS011;9808;52.402;16.678;2023-08-08T04:54:17;3.90;;;1.52;;
19343;SDS011;9808;52.402;16.678;2023-08-08T04:56:44;5.00;;;1.63;;
19343;SDS011;9808;52.402;16.678;2023-08-08T04:59:12;3.40;;;1.50;;
19343;SDS011;9808;52.402;16.678;2023-08-08T05:01:39;4.82;;;1.40;;
19343;SDS011;9808;52.402;16.678;2023-08-08T05:04:06;4.07;;;1.40;;
19343;SDS011;9808;52.402;16.678;2023-08-08T05:06:33;3.65;;;1.33;;
19343;SDS011;9808;52.402;16.678;2023-08-08T05:09:00;9.60;;;1.40;;
19343;SDS011;9808;52.402;16.678;2023-08-08T05:11:28;5.87;;;1.60;;
19343;SDS011;9808;52.402;16.678;2023-08-08T05:13:55;5.57;;;1.90;;
19343;SDS011;9808;52.402;16.678;2023-08-08T05:16:22;2.70;;;1.30;;
19343;SDS011;9808;52.402;16.678;2023-08-08T05:18:58;7.13;;;1.67;;
19343;SDS011;9808;52.402;16.678;2023-08-08T05:21:25;3.95;;;1.45;;
19343;SDS011;9808;52.402;16.678;2023-08-08T05:23:52;4.95;;;1.67;;
19343;SDS011;9808;52.402;16.678;2023-08-08T05:26:19;9.85;;;1.83;;
19343;SDS011;9808;52.402;16.678;2023-08-08T05:28:47;4.53;;;1.60;;
19343;SDS011;9808;52.402;16.678;2023-08-08T05:31:14;3.50;;;1.30;;
19343;SDS011;9808;52.402;16.678;2023-08-08T05:33:41;6.70;;;1.20;;
19343;SDS011;9808;52.402;16.678;2023-08-08T05:36:08;5.10;;;1.55;;
19343;SDS011;9808;52.402;16.678;2023-08-08T05:38:36;5.80;;;1.58;;
19343;SDS011;9808;52.402;16.678;2023-08-08T05:41:03;6.10;;;1.38;;
19343;SDS011;9808;52.402;16.678;2023-08-08T05:43:30;3.75;;;1.40;;
19343;SDS011;9808;52.402;16.678;2023-08-08T05:46:00;6.85;;;1.90;;
19343;SDS011;9808;52.402;16.678;2023-08-08T05:48:28;2.85;;;1.27;;
19343;SDS011;9808;52.402;16.678;2023-08-08T05:50:55;4.25;;;1.42;;
19343;SDS011;9808;52.402;16.678;2023-08-08T05:53:27;6.03;;;1.45;;
19343;SDS011;9808;52.402;16.678;2023-08-08T05:55:55;4.80;;;1.50;;
19343;SDS011;9808;52.402;16.678;2023-08-08T05:58:25;3.28;;;1.48;;
19343;SDS011;9808;52.402;16.678;2023-08-08T06:00:52;3.83;;;1.60;;
19343;SDS011;9808;52.402;16.678;2023-08-08T06:03:19;4.35;;;1.80;;
19343;SDS011;9808;52.402;16.678;2023-08-08T06:05:47;5.50;;;1.55;;
19343;SDS011;9808;52.402;16.678;2023-08-08T06:08:14;6.30;;;1.45;;
19343;SDS011;9808;52.402;16.678;2023-08-08T06:10:42;3.30;;;1.77;;
19343;SDS011;9808;52.402;16.678;2023-08-08T06:13:10;5.47;;;1.20;;
19343;SDS011;9808;52.402;16.678;2023-08-08T06:15:37;3.58;;;1.55;;
19343;SDS011;9808;52.402;16.678;2023-08-08T06:18:04;7.00;;;1.52;;
19343;SDS011;9808;52.402;16.678;2023-08-08T06:20:33;5.32;;;1.77;;
19343;SDS011;9808;52.402;16.678;2023-08-08T06:23:01;7.45;;;1.92;;
19343;SDS011;9808;52.402;16.678;2023-08-08T06:25:28;6.40;;;2.20;;
19343;SDS011;9808;52.402;16.678;2023-08-08T06:27:56;5.00;;;1.70;;
19343;SDS011;9808;52.402;16.678;2023-08-08T06:30:24;8.35;;;1.83;;
19343;SDS011;9808;52.402;16.678;2023-08-08T06:32:51;4.72;;;1.70;;
19343;SDS011;9808;52.402;16.678;2023-08-08T06:35:18;4.25;;;1.80;;
19343;SDS011;9808;52.402;16.678;2023-08-08T06:37:45;4.50;;;1.80;;
19343;SDS011;9808;52.402;16.678;2023-08-08T06:40:13;4.78;;;1.85;;
19343;SDS011;9808;52.402;16.678;2023-08-08T06:42:40;5.55;;;1.65;;
19343;SDS011;9808;52.402;16.678;2023-08-08T06:45:07;3.50;;;1.63;;
19343;SDS011;9808;52.402;16.678;2023-08-08T06:47:35;6.07;;;1.63;;
19343;SDS011;9808;52.402;16.678;2023-08-08T06:50:03;4.80;;;1.45;;
19343;SDS011;9808;52.402;16.678;2023-08-08T06:52:34;7.88;;;1.95;;
19343;SDS011;9808;52.402;16.678;2023-08-08T06:55:01;6.68;;;2.38;;
19343;SDS011;9808;52.402;16.678;2023-08-08T06:57:32;6.35;;;1.52;;
19343;SDS011;9808;52.402;16.678;2023-08-08T06:59:59;3.25;;;1.40;;
19343;SDS011;9808;52.402;16.678;2023-08-08T07:02:27;4.35;;;1.60;;
19343;SDS011;9808;52.402;16.678;2023-08-08T07:04:55;5.07;;;1.70;;
19343;SDS011;9808;52.402;16.678;2023-08-08T07:07:22;5.35;;;1.80;;
19343;SDS011;9808;52.402;16.678;2023-08-08T07:09:49;4.07;;;1.50;;
19343;SDS011;9808;52.402;16.678;2023-08-08T07:12:16;3.60;;;1.58;;
19343;SDS011;9808;52.402;16.678;2023-08-08T07:14:44;7.07;;;1.90;;
19343;SDS011;9808;52.402;16.678;2023-08-08T07:17:11;5.07;;;1.60;;
19343;SDS011;9808;52.402;16.678;2023-08-08T07:19:38;3.47;;;1.60;;
19343;SDS011;9808;52.402;16.678;2023-08-08T07:22:08;5.07;;;1.75;;
19343;SDS011;9808;52.402;16.678;2023-08-08T07:24:38;4.65;;;1.55;;
19343;SDS011;9808;52.402;16.678;2023-08-08T07:27:06;5.60;;;1.60;;
19343;SDS011;9808;52.402;16.678;2023-08-08T07:29:33;5.95;;;1.77;;
19343;SDS011;9808;52.402;16.678;2023-08-08T07:32:02;3.08;;;1.33;;
19343;SDS011;9808;52.402;16.678;2023-08-08T07:34:30;5.03;;;1.60;;
19343;SDS011;9808;52.402;16.678;2023-08-08T07:36:59;4.40;;;1.17;;
19343;SDS011;9808;52.402;16.678;2023-08-08T07:39:26;9.57;;;1.75;;
19343;SDS011;9808;52.402;16.678;2023-08-08T07:41:53;4.53;;;1.52;;
19343;SDS011;9808;52.402;16.678;2023-08-08T07:44:21;8.20;;;1.20;;
19343;SDS011;9808;52.402;16.678;2023-08-08T07:46:48;5.47;;;1.60;;
19343;SDS011;9808;52.402;16.678;2023-08-08T07:49:15;4.72;;;1.50;;
19343;SDS011;9808;52.402;16.678;2023-08-08T07:51:43;7.13;;;1.65;;
19343;SDS011;9808;52.402;16.678;2023-08-08T07:54:10;5.63;;;1.67;;
19343;SDS011;9808;52.402;16.678;2023-08-08T07:56:37;3.47;;;1.15;;
19343;SDS011;9808;52.402;16.678;2023-08-08T07:59:04;6.38;;;1.85;;
19343;SDS011;9808;52.402;16.678;2023-08-08T08:01:32;6.25;;;1.40;;
19343;SDS011;9808;52.402;16.678;2023-08-08T08:04:00;3.00;;;1.15;;
19343;SDS011;9808;52.402;16.678;2023-08-08T08:06:30;2.78;;;1.42;;
19343;SDS011;9808;52.402;16.678;2023-08-08T08:08:58;5.60;;;1.30;;
19343;SDS011;9808;52.402;16.678;2023-08-08T08:11:26;4.13;;;1.50;;
19343;SDS011;9808;52.402;16.678;2023-08-08T08:13:53;3.00;;;1.30;;
19343;SDS011;9808;52.402;16.678;2023-08-08T08:16:20;2.70;;;1.13;;
19343;SDS011;9808;52.402;16.678;2023-08-08T08:18:47;6.15;;;1.73;;
19343;SDS011;9808;52.402;16.678;2023-08-08T08:21:15;7.07;;;1.35;;
19343;SDS011;9808;52.402;16.678;2023-08-08T08:23:44;2.95;;;1.30;;
19343;SDS011;9808;52.402;16.678;2023-08-08T08:26:15;3.40;;;1.40;;
19343;SDS011;9808;52.402;16.678;2023-08-08T08:28:43;3.75;;;1.20;;
19343;SDS011;9808;52.402;16.678;2023-08-08T08:31:10;3.17;;;1.20;;
19343;SDS011;9808;52.402;16.678;2023-08-08T08:33:37;3.72;;;1.23;;
19343;SDS011;9808;52.402;16.678;2023-08-08T08:36:04;3.33;;;1.35;;
19343;SDS011;9808;52.402;16.678;2023-08-08T08:38:33;4.68;;;1.48;;
19343;SDS011;9808;52.402;16.678;2023-08-08T08:41:00;6.05;;;1.67;;
19343;SDS011;9808;52.402;16.678;2023-08-08T08:43:30;3.65;;;1.35;;
19343;SDS011;9808;52.402;16.678;2023-08-08T08:45:58;7.70;;;1.48;;
19343;SDS011;9808;52.402;16.678;2023-08-08T08:48:27;4.80;;;1.40;;
19343;SDS011;9808;52.402;16.678;2023-08-08T08:50:55;5.72;;;1.35;;
19343;SDS011;9808;52.402;16.678;2023-08-08T08:53:23;2.65;;;1.10;;
19343;SDS011;9808;52.402;16.678;2023-08-08T08:55:51;4.53;;;1.42;;
19343;SDS011;9808;52.402;16.678;2023-08-08T08:58:18;3.10;;;1.15;;
19343;SDS011;9808;52.402;16.678;2023-08-08T09:00:46;6.80;;;1.40;;
19343;SDS011;9808;52.402;16.678;2023-08-08T09:03:14;6.90;;;1.33;;
19343;SDS011;9808;52.402;16.678;2023-08-08T09:05:42;4.22;;;1.33;;
19343;SDS011;9808;52.402;16.678;2023-08-08T09:08:11;3.22;;;1.50;;
19343;SDS011;9808;52.402;16.678;2023-08-08T09:10:39;2.90;;;1.30;;
19343;SDS011;9808;52.402;16.678;2023-08-08T09:13:06;3.80;;;1.60;;
19343;SDS011;9808;52.402;16.678;2023-08-08T09:15:34;4.03;;;1.20;;
19343;SDS011;9808;52.402;16.678;2023-08-08T09:18:01;4.65;;;1.63;;
19343;SDS011;9808;52.402;16.678;2023-08-08T09:20:29;2.28;;;1.17;;
19343;SDS011;9808;52.402;16.678;2023-08-08T09:22:56;3.88;;;1.48;;
19343;SDS011;9808;52.402;16.678;2023-08-08T09:25:24;5.60;;;1.50;;
19343;SDS011;9808;52.402;16.678;2023-08-08T09:27:51;4.05;;;1.30;;
19343;SDS011;9808;52.402;16.678;2023-08-08T09:30:22;3.50;;;1.23;;
19343;SDS011;9808;52.402;16.678;2023-08-08T09:32:49;4.57;;;1.20;;
19343;SDS011;9808;52.402;16.678;2023-08-08T09:35:16;3.22;;;1.30;;
19343;SDS011;9808;52.402;16.678;2023-08-08T09:37:45;4.05;;;1.52;;
19343;SDS011;9808;52.402;16.678;2023-08-08T09:40:12;2.30;;;1.10;;
19343;SDS011;9808;52.402;16.678;2023-08-08T09:42:40;3.17;;;1.30;;
19343;SDS011;9808;52.402;16.678;2023-08-08T09:45:08;1.27;;;0.85;;
19343;SDS011;9808;52.402;16.678;2023-08-08T09:47:36;4.90;;;1.15;;
19343;SDS011;9808;52.402;16.678;2023-08-08T09:50:04;4.75;;;1.30;;
19343;SDS011;9808;52.402;16.678;2023-08-08T09:52:33;3.67;;;1.08;;
19343;SDS011;9808;52.402;16.678;2023-08-08T09:55:00;3.65;;;1.20;;
19343;SDS011;9808;52.402;16.678;2023-08-08T09:57:28;2.03;;;0.90;;
19343;SDS011;9808;52.402;16.678;2023-08-08T09:59:55;3.55;;;1.00;;
19343;SDS011;9808;52.402;16.678;2023-08-08T10:02:23;2.10;;;1.00;;
19343;SDS011;9808;52.402;16.678;2023-08-08T10:04:51;2.22;;;0.90;;
19343;SDS011;9808;52.402;16.678;2023-08-08T10:07:19;2.60;;;1.17;;
19343;SDS011;9808;52.402;16.678;2023-08-08T10:09:47;2.33;;;0.80;;
19343;SDS011;9808;52.402;16.678;2023-08-08T10:12:15;1.88;;;0.90;;
19343;SDS011;9808;52.402;16.678;2023-08-08T10:14:44;5.05;;;1.00;;
19343;SDS011;9808;52.402;16.678;2023-08-08T10:17:15;3.85;;;0.90;;
19343;SDS011;9808;52.402;16.678;2023-08-08T10:19:53;3.60;;;1.00;;
19343;SDS011;9808;52.402;16.678;2023-08-08T10:22:21;3.42;;;1.08;;
19343;SDS011;9808;52.402;16.678;2023-08-08T10:24:52;3.15;;;1.23;;
19343;SDS011;9808;52.402;16.678;2023-08-08T10:27:36;2.90;;;1.17;;
19343;SDS011;9808;52.402;16.678;2023-08-08T10:30:06;2.45;;;1.25;;
19343;SDS011;9808;52.402;16.678;2023-08-08T10:32:43;2.50;;;1.15;;
19343;SDS011;9808;52.402;16.678;2023-08-08T10:35:11;4.65;;;1.42;;
19343;SDS011;9808;52.402;16.678;2023-08-08T10:37:38;2.03;;;1.10;;
19343;SDS011;9808;52.402;16.678;2023-08-08T10:40:06;3.03;;;1.25;;
19343;SDS011;9808;52.402;16.678;2023-08-08T10:42:41;2.45;;;1.00;;
19343;SDS011;9808;52.402;16.678;2023-08-08T10:45:12;3.00;;;1.30;;
19343;SDS011;9808;52.402;16.678;2023-08-08T10:47:39;4.25;;;1.45;;
19343;SDS011;9808;52.402;16.678;2023-08-08T10:52:38;3.28;;;1.17;;
19343;SDS011;9808;52.402;16.678;2023-08-08T10:55:06;2.35;;;1.00;;
19343;SDS011;9808;52.402;16.678;2023-08-08T10:57:51;3.78;;;0.98;;
19343;SDS011;9808;52.402;16.678;2023-08-08T11:00:19;4.15;;;1.20;;
19343;SDS011;9808;52.402;16.678;2023-08-08T11:02:47;3.92;;;1.15;;
19343;SDS011;9808;52.402;16.678;2023-08-08T11:05:15;3.95;;;1.35;;
19343;SDS011;9808;52.402;16.678;2023-08-08T11:07:42;2.78;;;1.05;;
19343;SDS011;9808;52.402;16.678;2023-08-08T11:10:10;4.13;;;1.35;;
19343;SDS011;9808;52.402;16.678;2023-08-08T11:12:37;2.85;;;1.45;;
19343;SDS011;9808;52.402;16.678;2023-08-08T11:15:04;3.00;;;1.30;;
19343;SDS011;9808;52.402;16.678;2023-08-08T11:17:32;3.00;;;0.98;;
19343;SDS011;9808;52.402;16.678;2023-08-08T11:19:59;2.35;;;1.17;;
19343;SDS011;9808;52.402;16.678;2023-08-08T11:22:27;5.05;;;1.38;;
19343;SDS011;9808;52.402;16.678;2023-08-08T11:24:55;3.30;;;1.30;;
19343;SDS011;9808;52.402;16.678;2023-08-08T11:27:29;3.75;;;1.20;;
19343;SDS011;9808;52.402;16.678;2023-08-08T11:29:59;4.82;;;1.67;;
19343;SDS011;9808;52.402;16.678;2023-08-08T11:32:27;4.03;;;1.77;;
19343;SDS011;9808;52.402;16.678;2023-08-08T11:34:54;3.90;;;1.40;;
19343;SDS011;9808;52.402;16.678;2023-08-08T11:37:22;4.15;;;1.20;;
19343;SDS011;9808;52.402;16.678;2023-08-08T11:39:49;2.95;;;0.70;;
19343;SDS011;9808;52.402;16.678;2023-08-08T11:42:16;2.38;;;0.90;;
19343;SDS011;9808;52.402;16.678;2023-08-08T11:44:44;1.67;;;0.88;;
19343;SDS011;9808;52.402;16.678;2023-08-08T11:47:12;2.00;;;0.82;;
19343;SDS011;9808;52.402;16.678;2023-08-08T11:49:41;2.53;;;1.10;;
19343;SDS011;9808;52.402;16.678;2023-08-08T11:52:08;1.40;;;0.82;;
19343;SDS011;9808;52.402;16.678;2023-08-08T11:54:38;3.75;;;1.10;;
19343;SDS011;9808;52.402;16.678;2023-08-08T11:57:06;3.67;;;1.30;;
19343;SDS011;9808;52.402;16.678;2023-08-08T11:59:33;2.60;;;1.20;;
19343;SDS011;9808;52.402;16.678;2023-08-08T12:02:00;2.35;;;1.00;;
19343;SDS011;9808;52.402;16.678;2023-08-08T12:04:28;2.35;;;1.00;;
19343;SDS011;9808;52.402;16.678;2023-08-08T12:07:02;4.55;;;1.40;;
19343;SDS011;9808;52.402;16.678;2023-08-08T12:09:32;3.72;;;1.20;;
19343;SDS011;9808;52.402;16.678;2023-08-08T12:12:00;2.72;;;1.20;;
19343;SDS011;9808;52.402;16.678;2023-08-08T12:14:28;3.65;;;1.42;;
19343;SDS011;9808;52.402;16.678;2023-08-08T12:16:57;5.85;;;1.75;;
19343;SDS011;9808;52.402;16.678;2023-08-08T12:19:25;4.45;;;1.58;;
19343;SDS011;9808;52.402;16.678;2023-08-08T12:21:52;3.30;;;1.40;;
19343;SDS011;9808;52.402;16.678;2023-08-08T12:24:19;3.72;;;1.58;;
19343;SDS011;9808;52.402;16.678;2023-08-08T12:26:47;2.85;;;1.55;;
19343;SDS011;9808;52.402;16.678;2023-08-08T12:29:14;2.67;;;1.30;;
19343;SDS011;9808;52.402;16.678;2023-08-08T12:31:42;6.15;;;1.40;;
19343;SDS011;9808;52.402;16.678;2023-08-08T12:34:09;1.75;;;0.77;;
19343;SDS011;9808;52.402;16.678;2023-08-08T12:36:36;2.42;;;0.90;;
19343;SDS011;9808;52.402;16.678;2023-08-08T12:39:05;4.80;;;1.00;;
19343;SDS011;9808;52.402;16.678;2023-08-08T12:41:33;3.28;;;1.10;;
19343;SDS011;9808;52.402;16.678;2023-08-08T12:44:00;3.28;;;1.20;;
19343;SDS011;9808;52.402;16.678;2023-08-08T12:46:27;4.07;;;1.27;;
19343;SDS011;9808;52.402;16.678;2023-08-08T12:48:55;4.57;;;1.33;;
19343;SDS011;9808;52.402;16.678;2023-08-08T12:51:22;3.22;;;1.40;;
19343;SDS011;9808;52.402;16.678;2023-08-08T12:53:49;5.78;;;1.63;;
19343;SDS011;9808;52.402;16.678;2023-08-08T12:56:17;1.92;;;1.10;;
19343;SDS011;9808;52.402;16.678;2023-08-08T12:58:44;5.82;;;1.55;;
19343;SDS011;9808;52.402;16.678;2023-08-08T13:01:11;3.97;;;1.42;;
19343;SDS011;9808;52.402;16.678;2023-08-08T13:03:38;4.68;;;1.60;;
19343;SDS011;9808;52.402;16.678;2023-08-08T13:06:13;3.90;;;1.70;;
19343;SDS011;9808;52.402;16.678;2023-08-08T13:08:40;4.07;;;1.63;;
19343;SDS011;9808;52.402;16.678;2023-08-08T13:11:07;6.75;;;1.70;;
19343;SDS011;9808;52.402;16.678;2023-08-08T13:13:35;5.47;;;1.75;;
19343;SDS011;9808;52.402;16.678;2023-08-08T13:16:02;6.43;;;1.50;;
19343;SDS011;9808;52.402;16.678;2023-08-08T13:18:29;6.15;;;1.05;;
19343;SDS011;9808;52.402;16.678;2023-08-08T13:20:56;3.75;;;1.30;;
19343;SDS011;9808;52.402;16.678;2023-08-08T13:23:24;3.58;;;1.40;;
19343;SDS011;9808;52.402;16.678;2023-08-08T13:25:51;2.90;;;1.35;;
19343;SDS011;9808;52.402;16.678;2023-08-08T13:28:18;2.15;;;1.23;;
19343;SDS011;9808;52.402;16.678;2023-08-08T13:30:46;7.50;;;1.55;;
19343;SDS011;9808;52.402;16.678;2023-08-08T13:33:13;2.53;;;1.27;;
19343;SDS011;9808;52.402;16.678;2023-08-08T13:35:40;4.70;;;1.45;;
19343;SDS011;9808;52.402;16.678;2023-08-08T13:38:07;3.17;;;1.25;;
19343;SDS011;9808;52.402;16.678;2023-08-08T13:40:43;2.05;;;1.23;;
19343;SDS011;9808;52.402;16.678;2023-08-08T13:43:10;4.75;;;1.50;;
19343;SDS011;9808;52.402;16.678;2023-08-08T13:45:37;2.75;;;1.35;;
19343;SDS011;9808;52.402;16.678;2023-08-08T13:48:05;4.10;;;1.70;;
19343;SDS011;9808;52.402;16.678;2023-08-08T13:50:32;5.70;;;1.50;;
19343;SDS011;9808;52.402;16.678;2023-08-08T13:53:00;3.53;;;1.50;;
19343;SDS011;9808;52.402;16.678;2023-08-08T13:55:27;4.90;;;1.65;;
19343;SDS011;9808;52.402;16.678;2023-08-08T13:57:54;4.10;;;1.70;;
19343;SDS011;9808;52.402;16.678;2023-08-08T14:00:21;2.88;;;1.38;;
19343;SDS011;9808;52.402;16.678;2023-08-08T14:02:49;3.05;;;1.30;;
19343;SDS011;9808;52.402;16.678;2023-08-08T14:05:16;5.75;;;1.70;;
19343;SDS011;9808;52.402;16.678;2023-08-08T14:07:43;3.38;;;1.38;;
19343;SDS011;9808;52.402;16.678;2023-08-08T14:10:10;3.78;;;1.27;;
19343;SDS011;9808;52.402;16.678;2023-08-08T14:12:38;5.18;;;1.52;;
19343;SDS011;9808;52.402;16.678;2023-08-08T14:15:05;5.78;;;1.48;;
19343;SDS011;9808;52.402;16.678;2023-08-08T14:17:33;2.15;;;1.20;;
19343;SDS011;9808;52.402;16.678;2023-08-08T14:20:00;2.90;;;1.35;;
19343;SDS011;9808;52.402;16.678;2023-08-08T14:22:27;3.38;;;1.20;;
19343;SDS011;9808;52.402;16.678;2023-08-08T14:24:54;3.20;;;1.23;;
19343;SDS011;9808;52.402;16.678;2023-08-08T14:27:22;4.07;;;1.30;;
19343;SDS011;9808;52.402;16.678;2023-08-08T14:29:49;3.90;;;1.40;;
19343;SDS011;9808;52.402;16.678;2023-08-08T14:32:17;6.13;;;1.85;;
19343;SDS011;9808;52.402;16.678;2023-08-08T14:34:44;3.15;;;1.20;;
19343;SDS011;9808;52.402;16.678;2023-08-08T14:37:11;4.32;;;1.55;;
19343;SDS011;9808;52.402;16.678;2023-08-08T14:39:39;2.80;;;1.13;;
19343;SDS011;9808;52.402;16.678;2023-08-08T14:42:06;2.72;;;1.20;;
19343;SDS011;9808;52.402;16.678;2023-08-08T14:44:34;3.15;;;1.38;;
19343;SDS011;9808;52.402;16.678;2023-08-08T14:47:01;3.20;;;1.58;;
19343;SDS011;9808;52.402;16.678;2023-08-08T14:49:29;1.95;;;1.20;;
19343;SDS011;9808;52.402;16.678;2023-08-08T14:51:56;7.07;;;1.52;;
19343;SDS011;9808;52.402;16.678;2023-08-08T14:54:24;5.30;;;1.30;;
19343;SDS011;9808;52.402;16.678;2023-08-08T14:56:51;2.72;;;1.30;;